createdAt,value
2018-10-02T00:00:51.065Z,0
2018-10-02T00:01:51.649Z,0
2018-10-02T00:02:52.225Z,0
2018-10-02T00:03:52.792Z,0
2018-10-02T00:04:53.362Z,0
2018-10-02T00:05:53.932Z,0
2018-10-02T00:06:54.502Z,0
2018-10-02T00:07:55.074Z,0
2018-10-02T00:08:55.645Z,0
2018-10-02T00:09:56.214Z,0
2018-10-02T00:10:56.798Z,0
2018-10-02T00:11:57.368Z,0
2018-10-02T00:12:57.939Z,0
2018-10-02T00:13:58.523Z,0
2018-10-02T00:14:59.093Z,0
2018-10-02T00:15:59.664Z,0
2018-10-02T00:17:00.237Z,0
2018-10-02T00:18:00.808Z,0
2018-10-02T00:19:01.379Z,0
2018-10-02T00:20:01.951Z,0
2018-10-02T00:21:02.521Z,0
2018-10-02T00:22:03.093Z,0
2018-10-02T00:23:03.663Z,0
2018-10-02T00:24:04.234Z,0
2018-10-02T00:25:04.808Z,0
2018-10-02T00:26:05.376Z,0
2018-10-02T00:27:05.946Z,0
2018-10-02T00:28:06.517Z,0
2018-10-02T00:29:07.088Z,0
2018-10-02T00:30:07.660Z,0
2018-10-02T00:31:08.229Z,0
2018-10-02T00:32:08.945Z,0
2018-10-02T00:33:09.372Z,0
2018-10-02T00:34:09.942Z,0
2018-10-02T00:35:10.532Z,0
2018-10-02T00:36:11.083Z,0
2018-10-02T00:37:11.653Z,0
2018-10-02T00:38:12.225Z,0
2018-10-02T00:39:12.797Z,0
2018-10-02T00:40:13.367Z,0
2018-10-02T00:41:13.936Z,0
2018-10-02T00:42:14.510Z,0
2018-10-02T00:43:15.092Z,0
2018-10-02T00:44:15.665Z,0
2018-10-02T00:45:16.249Z,0
2018-10-02T00:46:16.819Z,0
2018-10-02T00:47:17.392Z,0
2018-10-02T00:48:17.960Z,0
2018-10-02T00:49:18.532Z,0
2018-10-02T00:50:19.104Z,0
2018-10-02T00:51:19.674Z,0
2018-10-02T00:52:20.247Z,0
2018-10-02T00:53:20.829Z,0
2018-10-02T00:54:21.399Z,0
2018-10-02T00:55:21.970Z,0
2018-10-02T00:56:22.546Z,0
2018-10-02T00:57:23.112Z,0
2018-10-02T00:58:23.698Z,0
2018-10-02T00:59:24.268Z,0
2018-10-02T01:00:24.839Z,0
2018-10-02T01:01:25.409Z,0
2018-10-02T01:02:25.991Z,0
2018-10-02T01:03:26.564Z,0
2018-10-02T01:04:27.133Z,0
2018-10-02T01:05:27.705Z,0
2018-10-02T01:06:28.274Z,0
2018-10-02T01:07:28.845Z,0
2018-10-02T01:08:29.418Z,0
2018-10-02T01:09:29.991Z,0
2018-10-02T01:10:30.575Z,0
2018-10-02T01:11:31.144Z,0
2018-10-02T01:12:31.714Z,0
2018-10-02T01:13:32.285Z,0
2018-10-02T01:14:32.858Z,0
2018-10-02T01:15:33.426Z,0
2018-10-02T01:16:33.997Z,0
2018-10-02T01:17:34.567Z,0
2018-10-02T01:18:35.150Z,0
2018-10-02T01:19:35.721Z,0
2018-10-02T01:20:36.324Z,0
2018-10-02T01:21:36.865Z,0
2018-10-02T01:22:37.434Z,0
2018-10-02T01:23:38.005Z,0
2018-10-02T01:24:38.574Z,0
2018-10-02T01:25:39.151Z,0
2018-10-02T01:26:39.733Z,0
2018-10-02T01:27:40.308Z,0
2018-10-02T01:28:40.889Z,0
2018-10-02T01:29:41.458Z,0
2018-10-02T01:30:42.028Z,0
2018-10-02T01:31:42.616Z,0
2018-10-02T01:32:43.196Z,0
2018-10-02T01:33:43.780Z,0
2018-10-02T01:34:44.351Z,0
2018-10-02T01:35:44.922Z,0
2018-10-02T01:36:45.492Z,0
2018-10-02T01:37:46.064Z,0
2018-10-02T01:38:46.654Z,0
2018-10-02T01:39:47.220Z,0
2018-10-02T01:40:47.792Z,0
2018-10-02T01:41:48.363Z,0
2018-10-02T01:42:48.950Z,0
2018-10-02T01:43:49.519Z,0
2018-10-02T01:44:50.104Z,0
2018-10-02T01:45:50.675Z,0
2018-10-02T01:46:51.246Z,0
2018-10-02T01:47:51.817Z,0
2018-10-02T01:48:52.388Z,0
2018-10-02T01:49:52.958Z,0
2018-10-02T01:50:53.530Z,0
2018-10-02T01:51:54.116Z,0
2018-10-02T01:52:54.687Z,0
2018-10-02T01:53:55.258Z,0
2018-10-02T01:54:55.827Z,0
2018-10-02T01:55:56.398Z,0
2018-10-02T01:56:56.970Z,0
2018-10-02T01:57:57.542Z,0
2018-10-02T01:58:58.127Z,0
2018-10-02T01:59:58.697Z,0
2018-10-02T02:00:59.268Z,0
2018-10-02T02:01:59.839Z,0
2018-10-02T02:03:00.411Z,0
2018-10-02T02:04:00.981Z,0
2018-10-02T02:05:01.565Z,0
2018-10-02T02:06:02.137Z,0
2018-10-02T02:07:02.709Z,0
2018-10-02T02:08:03.280Z,0
2018-10-02T02:09:03.865Z,0
2018-10-02T02:10:04.437Z,0
2018-10-02T02:11:05.010Z,0
2018-10-02T02:12:05.590Z,0
2018-10-02T02:13:06.164Z,0
2018-10-02T02:14:06.733Z,0
2018-10-02T02:15:07.305Z,0
2018-10-02T02:16:07.878Z,0
2018-10-02T02:17:08.448Z,0
2018-10-02T02:18:09.017Z,0
2018-10-02T02:19:09.588Z,0
2018-10-02T02:20:10.160Z,0
2018-10-02T02:21:10.731Z,0
2018-10-02T02:22:11.316Z,0
2018-10-02T02:23:11.886Z,0
2018-10-02T02:24:12.455Z,0
2018-10-02T02:25:13.027Z,0
2018-10-02T02:26:13.596Z,0
2018-10-02T02:27:14.169Z,0
2018-10-02T02:28:14.739Z,0
2018-10-02T02:29:15.311Z,0
2018-10-02T02:30:15.883Z,0
2018-10-02T02:31:16.450Z,0
2018-10-02T02:32:17.022Z,0
2018-10-02T02:33:17.598Z,0
2018-10-02T02:34:18.163Z,0
2018-10-02T02:35:18.735Z,0
2018-10-02T02:36:19.307Z,0
2018-10-02T02:37:19.877Z,0
2018-10-02T02:38:20.449Z,0
2018-10-02T02:39:21.015Z,0
2018-10-02T02:40:21.586Z,0
2018-10-02T02:41:22.169Z,0
2018-10-02T02:42:22.741Z,0
2018-10-02T02:43:23.314Z,0
2018-10-02T02:44:23.882Z,0
2018-10-02T02:45:24.468Z,0
2018-10-02T02:46:25.038Z,0
2018-10-02T02:47:25.634Z,0
2018-10-02T02:48:26.207Z,0
2018-10-02T02:49:26.776Z,0
2018-10-02T02:50:27.347Z,0
2018-10-02T02:51:27.920Z,0
2018-10-02T02:52:28.494Z,0
2018-10-02T02:53:29.061Z,0
2018-10-02T02:54:29.634Z,0
2018-10-02T02:55:30.200Z,0
2018-10-02T02:56:30.771Z,0
2018-10-02T02:57:31.343Z,0
2018-10-02T02:58:31.913Z,0
2018-10-02T02:59:32.498Z,0
2018-10-02T03:00:33.066Z,0
2018-10-02T03:01:33.636Z,0
2018-10-02T03:02:34.208Z,0
2018-10-02T03:03:34.790Z,0
2018-10-02T03:04:35.359Z,0
2018-10-02T03:05:35.948Z,0
2018-10-02T03:06:36.501Z,0
2018-10-02T03:07:37.071Z,0
2018-10-02T03:08:37.641Z,0
2018-10-02T03:09:38.210Z,0
2018-10-02T03:10:38.793Z,0
2018-10-02T03:11:39.362Z,0
2018-10-02T03:12:39.933Z,0
2018-10-02T03:13:40.516Z,0
2018-10-02T03:14:41.088Z,0
2018-10-02T03:15:41.657Z,0
2018-10-02T03:16:42.229Z,0
2018-10-02T03:17:42.799Z,0
2018-10-02T03:18:43.374Z,0
2018-10-02T03:19:43.941Z,0
2018-10-02T03:20:44.510Z,0
2018-10-02T03:21:45.120Z,0
2018-10-02T03:22:45.668Z,0
2018-10-02T03:23:46.235Z,0
2018-10-02T03:24:46.806Z,0
2018-10-02T03:25:47.375Z,0
2018-10-02T03:26:47.946Z,0
2018-10-02T03:27:48.519Z,0
2018-10-02T03:28:49.091Z,0
2018-10-02T03:29:49.663Z,0
2018-10-02T03:30:50.234Z,0
2018-10-02T03:31:50.804Z,0
2018-10-02T03:32:51.376Z,0
2018-10-02T03:33:51.945Z,0
2018-10-02T03:34:52.516Z,0
2018-10-02T03:35:53.089Z,0
2018-10-02T03:36:53.658Z,0
2018-10-02T03:37:54.296Z,0
2018-10-02T03:38:54.802Z,0
2018-10-02T03:39:55.388Z,0
2018-10-02T03:40:55.959Z,0
2018-10-02T03:41:56.540Z,0
2018-10-02T03:42:57.114Z,0
2018-10-02T03:43:57.683Z,0
2018-10-02T03:44:58.253Z,0
2018-10-02T03:45:58.827Z,0
2018-10-02T03:46:59.395Z,0
2018-10-02T03:47:59.980Z,0
2018-10-02T03:49:00.614Z,0
2018-10-02T03:50:01.132Z,0
2018-10-02T03:51:01.707Z,0
2018-10-02T03:52:02.278Z,0
2018-10-02T03:53:02.848Z,0
2018-10-02T03:54:03.419Z,0
2018-10-02T03:55:03.992Z,0
2018-10-02T03:56:04.563Z,0
2018-10-02T03:57:05.133Z,0
2018-10-02T03:58:05.706Z,0
2018-10-02T03:59:06.275Z,0
2018-10-02T04:00:06.853Z,0
2018-10-02T04:01:07.433Z,0
2018-10-02T04:02:08.002Z,0
2018-10-02T04:03:08.574Z,0
2018-10-02T04:04:09.142Z,0
2018-10-02T04:05:09.714Z,0
2018-10-02T04:06:10.286Z,0
2018-10-02T04:07:10.857Z,0
2018-10-02T04:08:11.427Z,0
2018-10-02T04:09:11.998Z,0
2018-10-02T04:10:12.569Z,0
2018-10-02T04:11:13.141Z,0
2018-10-02T04:12:13.713Z,0
2018-10-02T04:13:14.380Z,0
2018-10-02T04:14:14.869Z,0
2018-10-02T04:15:15.460Z,0
2018-10-02T04:16:16.011Z,0
2018-10-02T04:17:16.581Z,0
2018-10-02T04:18:17.152Z,0
2018-10-02T04:19:17.725Z,0
2018-10-02T04:20:18.308Z,0
2018-10-02T04:21:18.882Z,0
2018-10-02T04:22:19.456Z,0
2018-10-02T04:23:20.043Z,0
2018-10-02T04:24:20.609Z,0
2018-10-02T04:25:21.180Z,0
2018-10-02T04:26:21.766Z,0
2018-10-02T04:27:22.335Z,0
2018-10-02T04:28:22.932Z,0
2018-10-02T04:29:23.479Z,0
2018-10-02T04:30:24.050Z,0
2018-10-02T04:31:24.636Z,0
2018-10-02T04:32:25.206Z,0
2018-10-02T04:33:25.777Z,0
2018-10-02T04:34:26.351Z,0
2018-10-02T04:35:26.921Z,0
2018-10-02T04:36:27.494Z,0
2018-10-02T04:37:28.064Z,0
2018-10-02T04:38:28.635Z,0
2018-10-02T04:39:29.287Z,0
2018-10-02T04:40:29.801Z,0
2018-10-02T04:41:30.374Z,0
2018-10-02T04:42:30.956Z,0
2018-10-02T04:43:31.543Z,0
2018-10-02T04:44:32.114Z,0
2018-10-02T04:45:32.686Z,0
2018-10-02T04:46:33.257Z,0
2018-10-02T04:47:33.828Z,0
2018-10-02T04:48:34.402Z,0
2018-10-02T04:49:34.971Z,0
2018-10-02T04:50:35.543Z,0
2018-10-02T04:51:36.113Z,0
2018-10-02T04:52:36.683Z,0
2018-10-02T04:53:37.254Z,0
2018-10-02T04:54:37.825Z,0
2018-10-02T04:55:38.448Z,0
2018-10-02T04:56:38.969Z,0
2018-10-02T04:57:39.539Z,0
2018-10-02T04:58:40.110Z,0
2018-10-02T04:59:40.682Z,0
2018-10-02T05:00:41.258Z,0
2018-10-02T05:01:41.825Z,0
2018-10-02T05:02:42.394Z,0
2018-10-02T05:03:42.968Z,0
2018-10-02T05:04:43.555Z,0
2018-10-02T05:05:44.126Z,0
2018-10-02T05:06:44.697Z,0
2018-10-02T05:07:45.266Z,0
2018-10-02T05:08:45.872Z,0
2018-10-02T05:09:46.419Z,0
2018-10-02T05:10:46.990Z,0
2018-10-02T05:11:47.563Z,0
2018-10-02T05:12:48.148Z,0
2018-10-02T05:13:48.721Z,0
2018-10-02T05:14:49.307Z,0
2018-10-02T05:15:49.877Z,0
2018-10-02T05:16:50.449Z,0
2018-10-02T05:17:51.060Z,0
2018-10-02T05:18:51.604Z,0
2018-10-02T05:19:52.192Z,0
2018-10-02T05:20:52.767Z,0
2018-10-02T05:21:53.349Z,0
2018-10-02T05:22:53.922Z,0
2018-10-02T05:23:54.491Z,0
2018-10-02T05:24:55.064Z,0
2018-10-02T05:25:55.634Z,0
2018-10-02T05:26:56.206Z,0
2018-10-02T05:27:56.778Z,0
2018-10-02T05:28:57.349Z,0
2018-10-02T05:29:57.921Z,0
2018-10-02T05:30:58.506Z,4
2018-10-02T05:31:59.090Z,4
2018-10-02T05:32:59.662Z,4
2018-10-02T05:34:00.233Z,4
2018-10-02T05:35:00.904Z,0
2018-10-02T05:36:01.375Z,0
2018-10-02T05:37:01.952Z,0
2018-10-02T05:38:02.519Z,4
2018-10-02T05:39:03.104Z,4
2018-10-02T05:40:03.676Z,4
2018-10-02T05:41:04.248Z,4
2018-10-02T05:42:04.819Z,4
2018-10-02T05:43:05.390Z,4
2018-10-02T05:44:05.960Z,4
2018-10-02T05:45:06.577Z,4
2018-10-02T05:46:07.107Z,8
2018-10-02T05:47:07.676Z,4
2018-10-02T05:48:08.244Z,8
2018-10-02T05:49:08.820Z,8
2018-10-02T05:50:09.390Z,12
2018-10-02T05:51:09.965Z,8
2018-10-02T05:52:10.530Z,8
2018-10-02T05:53:11.153Z,12
2018-10-02T05:54:11.686Z,12
2018-10-02T05:55:12.260Z,12
2018-10-02T05:56:12.846Z,12
2018-10-02T05:57:13.421Z,12
2018-10-02T05:58:14.006Z,12
2018-10-02T05:59:14.571Z,12
2018-10-02T06:00:15.142Z,12
2018-10-02T06:01:15.728Z,12
2018-10-02T06:02:16.300Z,16
2018-10-02T06:03:16.870Z,12
2018-10-02T06:04:17.444Z,12
2018-10-02T06:05:18.019Z,12
2018-10-02T06:06:18.590Z,12
2018-10-02T06:07:19.174Z,16
2018-10-02T06:08:19.745Z,16
2018-10-02T06:09:20.318Z,16
2018-10-02T06:10:20.894Z,20
2018-10-02T06:11:21.464Z,20
2018-10-02T06:12:22.035Z,16
2018-10-02T06:13:22.607Z,12
2018-10-02T06:14:23.182Z,16
2018-10-02T06:15:23.754Z,20
2018-10-02T06:16:24.326Z,20
2018-10-02T06:17:24.903Z,28
2018-10-02T06:18:25.488Z,32
2018-10-02T06:19:26.059Z,36
2018-10-02T06:20:26.633Z,32
2018-10-02T06:21:27.208Z,28
2018-10-02T06:22:27.793Z,28
2018-10-02T06:23:28.364Z,24
2018-10-02T06:24:28.988Z,20
2018-10-02T06:25:29.510Z,28
2018-10-02T06:26:30.081Z,32
2018-10-02T06:27:30.653Z,36
2018-10-02T06:28:31.224Z,32
2018-10-02T06:29:31.798Z,32
2018-10-02T06:30:32.372Z,28
2018-10-02T06:31:32.943Z,24
2018-10-02T06:32:33.565Z,28
2018-10-02T06:33:34.092Z,28
2018-10-02T06:34:34.660Z,36
2018-10-02T06:35:35.232Z,44
2018-10-02T06:36:35.843Z,52
2018-10-02T06:37:36.379Z,56
2018-10-02T06:38:37.085Z,56
2018-10-02T06:39:37.521Z,60
2018-10-02T06:40:38.124Z,60
2018-10-02T06:41:38.666Z,56
2018-10-02T06:42:39.239Z,52
2018-10-02T06:43:39.832Z,48
2018-10-02T06:44:40.488Z,48
2018-10-02T06:45:40.974Z,48
2018-10-02T06:46:41.547Z,44
2018-10-02T06:47:42.119Z,36
2018-10-02T06:48:42.695Z,32
2018-10-02T06:49:43.269Z,40
2018-10-02T06:50:43.904Z,44
2018-10-02T06:51:44.492Z,44
2018-10-02T06:52:45.093Z,52
2018-10-02T06:53:45.557Z,52
2018-10-02T06:54:46.131Z,48
2018-10-02T06:55:46.704Z,44
2018-10-02T06:56:47.321Z,44
2018-10-02T06:57:47.848Z,44
2018-10-02T06:58:48.437Z,44
2018-10-02T06:59:49.006Z,44
2018-10-02T07:00:49.592Z,40
2018-10-02T07:01:50.166Z,40
2018-10-02T07:02:50.741Z,44
2018-10-02T07:03:51.307Z,36
2018-10-02T07:04:51.894Z,40
2018-10-02T07:05:52.481Z,44
2018-10-02T07:06:53.148Z,44
2018-10-02T07:07:53.636Z,48
2018-10-02T07:08:54.269Z,48
2018-10-02T07:09:54.782Z,40
2018-10-02T07:10:55.354Z,44
2018-10-02T07:11:55.941Z,44
2018-10-02T07:12:56.513Z,52
2018-10-02T07:13:57.090Z,52
2018-10-02T07:14:57.699Z,56
2018-10-02T07:15:58.232Z,48
2018-10-02T07:16:58.804Z,52
2018-10-02T07:17:59.379Z,56
2018-10-02T07:18:59.949Z,52
2018-10-02T07:20:00.522Z,60
2018-10-02T07:21:01.160Z,60
2018-10-02T07:22:01.669Z,68
2018-10-02T07:23:02.239Z,72
2018-10-02T07:24:02.816Z,76
2018-10-02T07:25:03.388Z,80
2018-10-02T07:26:03.959Z,84
2018-10-02T07:27:04.635Z,88
2018-10-02T07:28:05.219Z,92
2018-10-02T07:29:05.696Z,96
2018-10-02T07:30:06.268Z,100
2018-10-02T07:31:06.862Z,108
2018-10-02T07:32:07.414Z,112
2018-10-02T07:33:08.086Z,120
2018-10-02T07:34:08.610Z,132
2018-10-02T07:35:09.186Z,140
2018-10-02T07:36:09.759Z,140
2018-10-02T07:37:10.337Z,132
2018-10-02T07:38:10.908Z,144
2018-10-02T07:39:11.481Z,152
2018-10-02T07:40:12.068Z,144
2018-10-02T07:41:12.641Z,128
2018-10-02T07:42:13.223Z,124
2018-10-02T07:43:13.792Z,112
2018-10-02T07:44:14.363Z,116
2018-10-02T07:45:14.939Z,108
2018-10-02T07:46:15.510Z,104
2018-10-02T07:47:16.084Z,100
2018-10-02T07:48:16.712Z,96
2018-10-02T07:49:17.228Z,108
2018-10-02T07:50:17.800Z,128
2018-10-02T07:51:18.375Z,140
2018-10-02T07:52:18.968Z,152
2018-10-02T07:53:19.535Z,156
2018-10-02T07:54:20.110Z,160
2018-10-02T07:55:20.752Z,160
2018-10-02T07:56:21.280Z,164
2018-10-02T07:57:21.843Z,188
2018-10-02T07:58:22.417Z,228
2018-10-02T07:59:22.999Z,260
2018-10-02T08:00:23.565Z,276
2018-10-02T08:01:24.139Z,276
2018-10-02T08:02:24.759Z,256
2018-10-02T08:03:25.290Z,272
2018-10-02T08:04:25.863Z,256
2018-10-02T08:05:26.498Z,232
2018-10-02T08:06:27.013Z,216
2018-10-02T08:07:27.589Z,200
2018-10-02T08:08:28.212Z,188
2018-10-02T08:09:28.736Z,164
2018-10-02T08:10:29.305Z,156
2018-10-02T08:11:29.888Z,140
2018-10-02T08:12:30.629Z,116
2018-10-02T08:13:31.087Z,100
2018-10-02T08:14:31.738Z,100
2018-10-02T08:15:32.254Z,120
2018-10-02T08:16:32.831Z,116
2018-10-02T08:17:33.419Z,152
2018-10-02T08:18:33.982Z,188
2018-10-02T08:19:34.554Z,204
2018-10-02T08:20:35.186Z,208
2018-10-02T08:21:35.706Z,184
2018-10-02T08:22:36.279Z,164
2018-10-02T08:23:36.912Z,140
2018-10-02T08:24:37.424Z,116
2018-10-02T08:25:37.998Z,128
2018-10-02T08:26:38.599Z,132
2018-10-02T08:27:39.144Z,156
2018-10-02T08:28:39.781Z,148
2018-10-02T08:29:40.407Z,228
2018-10-02T08:30:40.866Z,276
2018-10-02T08:31:41.440Z,304
2018-10-02T08:32:42.054Z,312
2018-10-02T08:33:42.589Z,288
2018-10-02T08:34:43.164Z,256
2018-10-02T08:35:43.877Z,264
2018-10-02T08:36:44.313Z,248
2018-10-02T08:37:44.889Z,240
2018-10-02T08:38:45.547Z,244
2018-10-02T08:39:46.048Z,228
2018-10-02T08:40:46.624Z,236
2018-10-02T08:41:47.216Z,232
2018-10-02T08:42:47.803Z,228
2018-10-02T08:43:48.430Z,224
2018-10-02T08:44:48.997Z,220
2018-10-02T08:45:49.538Z,220
2018-10-02T08:46:50.113Z,228
2018-10-02T08:47:50.701Z,236
2018-10-02T08:48:51.278Z,216
2018-10-02T08:49:51.853Z,228
2018-10-02T08:50:52.492Z,240
2018-10-02T08:51:53.105Z,256
2018-10-02T08:52:53.583Z,264
2018-10-02T08:53:54.223Z,328
2018-10-02T08:54:54.741Z,356
2018-10-02T08:55:55.316Z,336
2018-10-02T08:56:55.891Z,336
2018-10-02T08:57:56.468Z,312
2018-10-02T08:58:57.042Z,276
2018-10-02T08:59:57.621Z,240
2018-10-02T09:00:58.219Z,220
2018-10-02T09:01:58.797Z,232
2018-10-02T09:02:59.379Z,208
2018-10-02T09:03:59.946Z,176
2018-10-02T09:05:00.536Z,180
2018-10-02T09:06:01.108Z,172
2018-10-02T09:07:01.828Z,164
2018-10-02T09:08:02.264Z,168
2018-10-02T09:09:02.837Z,184
2018-10-02T09:10:03.413Z,184
2018-10-02T09:11:03.987Z,200
2018-10-02T09:12:04.564Z,204
2018-10-02T09:13:05.198Z,188
2018-10-02T09:14:05.711Z,200
2018-10-02T09:15:12.155Z,216
2018-10-02T09:16:06.955Z,224
2018-10-02T09:17:07.440Z,200
2018-10-02T09:18:08.011Z,216
2018-10-02T09:19:08.585Z,212
2018-10-02T09:20:09.160Z,220
2018-10-02T09:21:09.736Z,228
2018-10-02T09:22:10.311Z,224
2018-10-02T09:23:10.887Z,288
2018-10-02T09:24:11.475Z,312
2018-10-02T09:25:12.070Z,316
2018-10-02T09:26:12.640Z,304
2018-10-02T09:27:13.217Z,304
2018-10-02T09:28:13.792Z,308
2018-10-02T09:29:14.366Z,300
2018-10-02T09:30:15.002Z,308
2018-10-02T09:31:15.591Z,316
2018-10-02T09:32:16.095Z,340
2018-10-02T09:33:16.682Z,328
2018-10-02T09:34:17.258Z,308
2018-10-02T09:35:17.842Z,296
2018-10-02T09:36:18.422Z,296
2018-10-02T09:37:19.064Z,308
2018-10-02T09:38:19.587Z,312
2018-10-02T09:39:20.214Z,344
2018-10-02T09:40:20.736Z,364
2018-10-02T09:41:21.316Z,356
2018-10-02T09:42:21.952Z,352
2018-10-02T09:43:22.543Z,352
2018-10-02T09:44:23.059Z,336
2018-10-02T09:45:23.636Z,292
2018-10-02T09:46:24.201Z,280
2018-10-02T09:47:24.784Z,260
2018-10-02T09:48:25.404Z,320
2018-10-02T09:49:25.948Z,292
2018-10-02T09:50:26.554Z,276
2018-10-02T09:51:27.092Z,264
2018-10-02T09:52:27.669Z,268
2018-10-02T09:53:28.243Z,268
2018-10-02T09:54:28.873Z,240
2018-10-02T09:55:29.395Z,180
2018-10-02T09:56:29.987Z,164
2018-10-02T09:57:30.557Z,156
2018-10-02T09:58:31.188Z,164
2018-10-02T09:59:31.708Z,160
2018-10-02T10:00:32.308Z,148
2018-10-02T10:01:32.855Z,148
2018-10-02T10:02:33.496Z,152
2018-10-02T10:03:34.019Z,140
2018-10-02T10:04:34.592Z,132
2018-10-02T10:05:35.181Z,128
2018-10-02T10:06:35.755Z,136
2018-10-02T10:07:36.331Z,180
2018-10-02T10:08:36.905Z,224
2018-10-02T10:09:37.479Z,244
2018-10-02T10:10:38.154Z,212
2018-10-02T10:11:38.627Z,172
2018-10-02T10:12:39.202Z,136
2018-10-02T10:13:39.776Z,136
2018-10-02T10:14:40.349Z,164
2018-10-02T10:15:40.925Z,272
2018-10-02T10:16:41.567Z,296
2018-10-02T10:17:42.075Z,224
2018-10-02T10:18:42.650Z,172
2018-10-02T10:19:43.237Z,152
2018-10-02T10:20:43.810Z,140
2018-10-02T10:21:44.386Z,144
2018-10-02T10:22:45.025Z,152
2018-10-02T10:23:45.534Z,176
2018-10-02T10:24:46.109Z,184
2018-10-02T10:25:46.699Z,212
2018-10-02T10:26:47.273Z,308
2018-10-02T10:27:47.847Z,300
2018-10-02T10:28:48.472Z,240
2018-10-02T10:29:49.037Z,244
2018-10-02T10:30:49.619Z,248
2018-10-02T10:31:50.193Z,248
2018-10-02T10:32:50.768Z,228
2018-10-02T10:33:51.343Z,224
2018-10-02T10:34:51.929Z,212
2018-10-02T10:35:52.495Z,220
2018-10-02T10:36:53.069Z,228
2018-10-02T10:37:53.644Z,232
2018-10-02T10:38:54.220Z,256
2018-10-02T10:39:54.817Z,268
2018-10-02T10:40:55.396Z,352
2018-10-02T10:41:55.954Z,336
2018-10-02T10:42:56.529Z,272
2018-10-02T10:43:57.103Z,256
2018-10-02T10:44:57.677Z,248
2018-10-02T10:45:58.253Z,268
2018-10-02T10:46:58.906Z,296
2018-10-02T10:47:59.409Z,308
2018-10-02T10:48:59.984Z,324
2018-10-02T10:50:00.560Z,296
2018-10-02T10:51:01.137Z,312
2018-10-02T10:52:01.708Z,280
2018-10-02T10:53:02.373Z,268
2018-10-02T10:54:02.860Z,264
2018-10-02T10:55:03.435Z,268
2018-10-02T10:56:04.010Z,272
2018-10-02T10:57:04.599Z,328
2018-10-02T10:58:05.173Z,348
2018-10-02T10:59:05.770Z,344
2018-10-02T11:00:06.327Z,352
2018-10-02T11:01:06.903Z,340
2018-10-02T11:02:07.533Z,372
2018-10-02T11:03:08.063Z,364
2018-10-02T11:04:08.642Z,320
2018-10-02T11:05:09.252Z,316
2018-10-02T11:06:09.793Z,360
2018-10-02T11:07:10.368Z,356
2018-10-02T11:08:10.943Z,356
2018-10-02T11:09:11.519Z,388
2018-10-02T11:10:12.110Z,436
2018-10-02T11:11:12.687Z,404
2018-10-02T11:12:13.268Z,404
2018-10-02T11:13:13.850Z,388
2018-10-02T11:14:14.425Z,336
2018-10-02T11:15:15.075Z,308
2018-10-02T11:16:15.577Z,276
2018-10-02T11:17:16.154Z,288
2018-10-02T11:18:16.729Z,300
2018-10-02T11:19:17.305Z,312
2018-10-02T11:20:17.883Z,320
2018-10-02T11:21:18.456Z,288
2018-10-02T11:22:19.034Z,316
2018-10-02T11:23:19.609Z,312
2018-10-02T11:24:20.184Z,344
2018-10-02T11:25:20.880Z,376
2018-10-02T11:26:21.350Z,300
2018-10-02T11:27:21.925Z,312
2018-10-02T11:28:22.502Z,352
2018-10-02T11:29:23.077Z,368
2018-10-02T11:30:23.652Z,372
2018-10-02T11:31:24.256Z,384
2018-10-02T11:32:24.803Z,384
2018-10-02T11:33:25.378Z,380
2018-10-02T11:34:25.955Z,360
2018-10-02T11:35:26.578Z,368
2018-10-02T11:36:27.119Z,400
2018-10-02T11:37:27.722Z,388
2018-10-02T11:38:28.270Z,368
2018-10-02T11:39:28.849Z,380
2018-10-02T11:40:29.424Z,332
2018-10-02T11:41:29.999Z,344
2018-10-02T11:42:30.575Z,360
2018-10-02T11:43:31.180Z,384
2018-10-02T11:44:31.768Z,340
2018-10-02T11:45:32.316Z,280
2018-10-02T11:46:32.893Z,220
2018-10-02T11:47:33.466Z,176
2018-10-02T11:48:34.042Z,184
2018-10-02T11:49:34.636Z,204
2018-10-02T11:50:35.192Z,208
2018-10-02T11:51:35.766Z,208
2018-10-02T11:52:36.342Z,172
2018-10-02T11:53:36.930Z,180
2018-10-02T11:54:37.504Z,184
2018-10-02T11:55:38.100Z,184
2018-10-02T11:56:38.663Z,188
2018-10-02T11:57:39.293Z,156
2018-10-02T11:58:39.810Z,128
2018-10-02T11:59:40.385Z,148
2018-10-02T12:00:41.104Z,144
2018-10-02T12:01:41.533Z,184
2018-10-02T12:02:42.293Z,216
2018-10-02T12:03:42.694Z,248
2018-10-02T12:04:43.263Z,304
2018-10-02T12:05:43.839Z,376
2018-10-02T12:06:44.438Z,380
2018-10-02T12:07:44.988Z,360
2018-10-02T12:08:45.624Z,284
2018-10-02T12:09:46.138Z,288
2018-10-02T12:10:46.716Z,260
2018-10-02T12:11:47.292Z,220
2018-10-02T12:12:47.867Z,188
2018-10-02T12:13:48.458Z,184
2018-10-02T12:14:49.073Z,176
2018-10-02T12:15:49.599Z,200
2018-10-02T12:16:50.175Z,280
2018-10-02T12:17:50.752Z,268
2018-10-02T12:18:51.326Z,272
2018-10-02T12:19:52.134Z,352
2018-10-02T12:20:52.481Z,460
2018-10-02T12:21:53.069Z,528
2018-10-02T12:22:53.644Z,568
2018-10-02T12:23:54.220Z,532
2018-10-02T12:24:54.797Z,600
2018-10-02T12:25:55.373Z,720
2018-10-02T12:26:55.948Z,532
2018-10-02T12:27:56.526Z,424
2018-10-02T12:28:57.104Z,428
2018-10-02T12:29:57.679Z,508
2018-10-02T12:30:58.255Z,552
2018-10-02T12:31:58.832Z,484
2018-10-02T12:32:59.407Z,476
2018-10-02T12:33:59.986Z,392
2018-10-02T12:35:00.561Z,404
2018-10-02T12:36:01.136Z,352
2018-10-02T12:37:01.712Z,304
2018-10-02T12:38:02.289Z,308
2018-10-02T12:39:02.867Z,292
2018-10-02T12:40:03.444Z,252
2018-10-02T12:41:04.016Z,280
2018-10-02T12:42:04.595Z,332
2018-10-02T12:43:05.175Z,320
2018-10-02T12:44:05.746Z,272
2018-10-02T12:45:06.322Z,268
2018-10-02T12:46:06.955Z,264
2018-10-02T12:47:07.553Z,292
2018-10-02T12:48:08.050Z,292
2018-10-02T12:49:08.626Z,284
2018-10-02T12:50:09.207Z,272
2018-10-02T12:51:09.777Z,192
2018-10-02T12:52:10.423Z,152
2018-10-02T12:53:11.004Z,112
2018-10-02T12:54:11.512Z,104
2018-10-02T12:55:12.096Z,112
2018-10-02T12:56:12.664Z,112
2018-10-02T12:57:13.241Z,104
2018-10-02T12:58:13.814Z,144
2018-10-02T12:59:14.421Z,140
2018-10-02T13:00:14.978Z,124
2018-10-02T13:01:15.554Z,136
2018-10-02T13:02:16.144Z,144
2018-10-02T13:03:16.720Z,112
2018-10-02T13:04:17.293Z,116
2018-10-02T13:05:17.871Z,148
2018-10-02T13:06:18.448Z,164
2018-10-02T13:07:19.033Z,228
2018-10-02T13:08:19.609Z,264
2018-10-02T13:09:20.185Z,252
2018-10-02T13:10:20.765Z,220
2018-10-02T13:11:21.352Z,260
2018-10-02T13:12:21.930Z,220
2018-10-02T13:13:22.506Z,220
2018-10-02T13:14:23.079Z,252
2018-10-02T13:15:23.656Z,236
2018-10-02T13:16:24.233Z,224
2018-10-02T13:17:24.812Z,276
2018-10-02T13:18:25.387Z,292
2018-10-02T13:19:25.962Z,308
2018-10-02T13:20:26.560Z,268
2018-10-02T13:21:27.130Z,252
2018-10-02T13:22:27.705Z,232
2018-10-02T13:23:28.282Z,240
2018-10-02T13:24:28.858Z,248
2018-10-02T13:25:29.433Z,280
2018-10-02T13:26:30.010Z,252
2018-10-02T13:27:30.587Z,264
2018-10-02T13:28:31.177Z,256
2018-10-02T13:29:31.754Z,232
2018-10-02T13:30:32.345Z,216
2018-10-02T13:31:32.922Z,232
2018-10-02T13:32:33.512Z,232
2018-10-02T13:33:34.087Z,260
2018-10-02T13:34:34.733Z,216
2018-10-02T13:35:35.270Z,188
2018-10-02T13:36:35.830Z,216
2018-10-02T13:37:36.407Z,296
2018-10-02T13:38:36.985Z,316
2018-10-02T13:39:37.557Z,304
2018-10-02T13:40:38.134Z,292
2018-10-02T13:41:38.708Z,264
2018-10-02T13:42:39.285Z,276
2018-10-02T13:43:39.863Z,300
2018-10-02T13:44:40.479Z,320
2018-10-02T13:45:41.021Z,352
2018-10-02T13:46:41.599Z,352
2018-10-02T13:47:42.176Z,288
2018-10-02T13:48:42.752Z,252
2018-10-02T13:49:43.328Z,272
2018-10-02T13:50:44.067Z,264
2018-10-02T13:51:44.481Z,244
2018-10-02T13:52:45.056Z,248
2018-10-02T13:53:45.637Z,228
2018-10-02T13:54:46.209Z,200
2018-10-02T13:55:46.787Z,196
2018-10-02T13:56:47.363Z,248
2018-10-02T13:57:47.939Z,276
2018-10-02T13:58:48.520Z,328
2018-10-02T13:59:49.092Z,296
2018-10-02T14:00:49.667Z,244
2018-10-02T14:01:50.245Z,280
2018-10-02T14:02:50.821Z,272
2018-10-02T14:03:51.398Z,256
2018-10-02T14:04:51.978Z,228
2018-10-02T14:05:52.548Z,204
2018-10-02T14:06:53.123Z,216
2018-10-02T14:07:53.699Z,240
2018-10-02T14:08:54.275Z,276
2018-10-02T14:09:54.855Z,280
2018-10-02T14:10:55.427Z,368
2018-10-02T14:11:56.003Z,404
2018-10-02T14:12:56.579Z,512
2018-10-02T14:13:57.156Z,592
2018-10-02T14:14:57.796Z,432
2018-10-02T14:15:58.310Z,332
2018-10-02T14:16:58.885Z,252
2018-10-02T14:17:59.461Z,236
2018-10-02T14:19:00.041Z,200
2018-10-02T14:20:00.612Z,196
2018-10-02T14:21:01.188Z,236
2018-10-02T14:22:01.766Z,268